sensor_id;sensor_type;location;lat;lon;timestamp;temperature;humidity
6788;DHT22;3431;47.966;10.268;2023-08-21T00:00:19;21.30;99.90
6788;DHT22;3431;47.966;10.268;2023-08-21T00:00:42;21.30;99.90
6788;DHT22;3431;47.966;10.268;2023-08-21T00:01:03;21.30;99.90
6788;DHT22;3431;47.966;10.268;2023-08-21T00:01:25;21.30;99.90
6788;DHT22;3431;47.966;10.268;2023-08-21T00:01:46;21.30;99.90
6788;DHT22;3431;47.966;10.268;2023-08-21T00:02:08;21.30;99.90
6788;DHT22;3431;47.966;10.268;2023-08-21T00:02:31;21.30;99.90
6788;DHT22;3431;47.966;10.268;2023-08-21T00:02:52;21.30;99.90
6788;DHT22;3431;47.966;10.268;2023-08-21T00:03:14;21.30;99.90
6788;DHT22;3431;47.966;10.268;2023-08-21T00:03:35;21.30;99.90
6788;DHT22;3431;47.966;10.268;2023-08-21T00:03:57;21.30;99.90
6788;DHT22;3431;47.966;10.268;2023-08-21T00:04:18;21.30;99.90
6788;DHT22;3431;47.966;10.268;2023-08-21T00:04:41;21.30;99.90
6788;DHT22;3431;47.966;10.268;2023-08-21T00:05:03;21.30;99.90
6788;DHT22;3431;47.966;10.268;2023-08-21T00:05:24;21.20;99.90
6788;DHT22;3431;47.966;10.268;2023-08-21T00:05:46;21.30;99.90
6788;DHT22;3431;47.966;10.268;2023-08-21T00:06:08;21.20;99.90
6788;DHT22;3431;47.966;10.268;2023-08-21T00:06:29;21.20;99.90
6788;DHT22;3431;47.966;10.268;2023-08-21T00:06:52;21.20;99.90
6788;DHT22;3431;47.966;10.268;2023-08-21T00:07:13;21.20;99.90
6788;DHT22;3431;47.966;10.268;2023-08-21T00:07:35;21.20;99.90
6788;DHT22;3431;47.966;10.268;2023-08-21T00:07:56;21.20;99.90
6788;DHT22;3431;47.966;10.268;2023-08-21T00:08:18;21.20;99.90
6788;DHT22;3431;47.966;10.268;2023-08-21T00:08:40;21.20;99.90
6788;DHT22;3431;47.966;10.268;2023-08-21T00:09:02;21.20;99.90
6788;DHT22;3431;47.966;10.268;2023-08-21T00:09:24;21.10;99.90
6788;DHT22;3431;47.966;10.268;2023-08-21T00:09:45;21.10;99.90
6788;DHT22;3431;47.966;10.268;2023-08-21T00:10:08;21.10;99.90
6788;DHT22;3431;47.966;10.268;2023-08-21T00:10:31;21.10;99.90
6788;DHT22;3431;47.966;10.268;2023-08-21T00:10:55;21.10;99.90
6788;DHT22;3431;47.966;10.268;2023-08-21T00:11:17;21.10;99.90
6788;DHT22;3431;47.966;10.268;2023-08-21T00:11:38;21.10;99.90
6788;DHT22;3431;47.966;10.268;2023-08-21T00:12:00;21.10;99.90
6788;DHT22;3431;47.966;10.268;2023-08-21T00:12:22;21.10;99.90
6788;DHT22;3431;47.966;10.268;2023-08-21T00:12:44;21.10;99.90
6788;DHT22;3431;47.966;10.268;2023-08-21T00:13:05;21.00;99.90
6788;DHT22;3431;47.966;10.268;2023-08-21T00:13:27;21.00;99.90
6788;DHT22;3431;47.966;10.268;2023-08-21T00:13:49;21.00;99.90
6788;DHT22;3431;47.966;10.268;2023-08-21T00:14:10;21.00;99.90
6788;DHT22;3431;47.966;10.268;2023-08-21T00:14:33;21.00;99.90
6788;DHT22;3431;47.966;10.268;2023-08-21T00:14:54;21.00;99.90
6788;DHT22;3431;47.966;10.268;2023-08-21T00:15:16;21.00;99.90
6788;DHT22;3431;47.966;10.268;2023-08-21T00:15:38;21.00;99.90
6788;DHT22;3431;47.966;10.268;2023-08-21T00:16:00;21.00;99.90
6788;DHT22;3431;47.966;10.268;2023-08-21T00:16:22;21.00;99.90
6788;DHT22;3431;47.966;10.268;2023-08-21T00:16:44;21.00;99.90
6788;DHT22;3431;47.966;10.268;2023-08-21T00:17:05;20.90;99.90
6788;DHT22;3431;47.966;10.268;2023-08-21T00:17:27;20.90;99.90
6788;DHT22;3431;47.966;10.268;2023-08-21T00:17:48;20.90;99.90
6788;DHT22;3431;47.966;10.268;2023-08-21T00:18:11;20.80;99.90
6788;DHT22;3431;47.966;10.268;2023-08-21T00:18:32;20.80;99.90
6788;DHT22;3431;47.966;10.268;2023-08-21T00:18:54;20.70;99.90
6788;DHT22;3431;47.966;10.268;2023-08-21T00:19:16;20.70;99.90
6788;DHT22;3431;47.966;10.268;2023-08-21T00:19:38;20.60;99.90
6788;DHT22;3431;47.966;10.268;2023-08-21T00:20:00;20.60;99.90
6788;DHT22;3431;47.966;10.268;2023-08-21T00:20:23;20.50;99.90
6788;DHT22;3431;47.966;10.268;2023-08-21T00:20:45;20.40;99.90
6788;DHT22;3431;47.966;10.268;2023-08-21T00:21:06;20.40;99.90
6788;DHT22;3431;47.966;10.268;2023-08-21T00:21:28;20.30;99.90
6788;DHT22;3431;47.966;10.268;2023-08-21T00:21:50;20.30;99.90
6788;DHT22;3431;47.966;10.268;2023-08-21T00:22:12;20.30;99.90
6788;DHT22;3431;47.966;10.268;2023-08-21T00:22:33;20.20;99.90
6788;DHT22;3431;47.966;10.268;2023-08-21T00:22:55;20.20;99.90
6788;DHT22;3431;47.966;10.268;2023-08-21T00:23:17;20.20;99.90
6788;DHT22;3431;47.966;10.268;2023-08-21T00:23:39;20.20;99.90
6788;DHT22;3431;47.966;10.268;2023-08-21T00:24:01;20.20;99.90
6788;DHT22;3431;47.966;10.268;2023-08-21T00:24:23;20.20;99.90
6788;DHT22;3431;47.966;10.268;2023-08-21T00:24:45;20.20;99.90
6788;DHT22;3431;47.966;10.268;2023-08-21T00:25:07;20.20;99.90
6788;DHT22;3431;47.966;10.268;2023-08-21T00:25:30;20.20;99.90
6788;DHT22;3431;47.966;10.268;2023-08-21T00:25:51;20.20;99.90
6788;DHT22;3431;47.966;10.268;2023-08-21T00:26:14;20.20;99.90
6788;DHT22;3431;47.966;10.268;2023-08-21T00:26:36;20.20;99.90
6788;DHT22;3431;47.966;10.268;2023-08-21T00:26:57;20.20;99.90
6788;DHT22;3431;47.966;10.268;2023-08-21T00:27:20;20.20;99.90
6788;DHT22;3431;47.966;10.268;2023-08-21T00:27:41;20.20;99.90
6788;DHT22;3431;47.966;10.268;2023-08-21T00:28:03;20.20;99.90
6788;DHT22;3431;47.966;10.268;2023-08-21T00:28:25;20.20;99.90
6788;DHT22;3431;47.966;10.268;2023-08-21T00:28:47;20.20;99.90
6788;DHT22;3431;47.966;10.268;2023-08-21T00:29:10;20.20;99.90
6788;DHT22;3431;47.966;10.268;2023-08-21T00:29:31;20.20;99.90
6788;DHT22;3431;47.966;10.268;2023-08-21T00:29:53;20.30;99.90
6788;DHT22;3431;47.966;10.268;2023-08-21T00:30:14;20.30;99.90
6788;DHT22;3431;47.966;10.268;2023-08-21T00:30:37;20.30;99.90
6788;DHT22;3431;47.966;10.268;2023-08-21T00:31:00;20.30;99.90
6788;DHT22;3431;47.966;10.268;2023-08-21T00:31:22;20.30;99.90
6788;DHT22;3431;47.966;10.268;2023-08-21T00:31:44;20.30;99.90
6788;DHT22;3431;47.966;10.268;2023-08-21T00:32:06;20.30;99.90
6788;DHT22;3431;47.966;10.268;2023-08-21T00:32:28;20.30;99.90
6788;DHT22;3431;47.966;10.268;2023-08-21T00:32:50;20.30;99.90
6788;DHT22;3431;47.966;10.268;2023-08-21T00:33:11;20.40;99.90
6788;DHT22;3431;47.966;10.268;2023-08-21T00:33:33;20.30;99.90
6788;DHT22;3431;47.966;10.268;2023-08-21T00:33:55;20.40;99.90
6788;DHT22;3431;47.966;10.268;2023-08-21T00:34:17;20.40;99.90
6788;DHT22;3431;47.966;10.268;2023-08-21T00:34:39;20.40;99.90
6788;DHT22;3431;47.966;10.268;2023-08-21T00:35:00;20.40;99.90
6788;DHT22;3431;47.966;10.268;2023-08-21T00:35:22;20.40;99.90
6788;DHT22;3431;47.966;10.268;2023-08-21T00:35:43;20.40;99.90
6788;DHT22;3431;47.966;10.268;2023-08-21T00:36:05;20.40;99.90
6788;DHT22;3431;47.966;10.268;2023-08-21T00:36:28;20.40;99.90
6788;DHT22;3431;47.966;10.268;2023-08-21T00:36:49;20.40;99.90
6788;DHT22;3431;47.966;10.268;2023-08-21T00:37:11;20.40;99.90
6788;DHT22;3431;47.966;10.268;2023-08-21T00:37:32;20.40;99.90
6788;DHT22;3431;47.966;10.268;2023-08-21T00:37:54;20.40;99.90
6788;DHT22;3431;47.966;10.268;2023-08-21T00:38:16;20.40;99.90
6788;DHT22;3431;47.966;10.268;2023-08-21T00:38:38;20.40;99.90
6788;DHT22;3431;47.966;10.268;2023-08-21T00:39:01;20.40;99.90
6788;DHT22;3431;47.966;10.268;2023-08-21T00:39:24;20.40;99.90
6788;DHT22;3431;47.966;10.268;2023-08-21T00:39:46;20.40;99.90
6788;DHT22;3431;47.966;10.268;2023-08-21T00:40:09;20.40;99.90
6788;DHT22;3431;47.966;10.268;2023-08-21T00:40:31;20.40;99.90
6788;DHT22;3431;47.966;10.268;2023-08-21T00:40:53;20.40;99.90
6788;DHT22;3431;47.966;10.268;2023-08-21T00:41:15;20.40;99.90
6788;DHT22;3431;47.966;10.268;2023-08-21T00:41:37;20.50;99.90
6788;DHT22;3431;47.966;10.268;2023-08-21T00:42:00;20.50;99.90
6788;DHT22;3431;47.966;10.268;2023-08-21T00:42:21;20.50;99.90
6788;DHT22;3431;47.966;10.268;2023-08-21T00:42:43;20.50;99.90
6788;DHT22;3431;47.966;10.268;2023-08-21T00:43:04;20.50;99.90
6788;DHT22;3431;47.966;10.268;2023-08-21T00:43:26;20.50;99.90
6788;DHT22;3431;47.966;10.268;2023-08-21T00:43:47;20.50;99.90
6788;DHT22;3431;47.966;10.268;2023-08-21T00:44:10;20.50;99.90
6788;DHT22;3431;47.966;10.268;2023-08-21T00:44:31;20.50;99.90
6788;DHT22;3431;47.966;10.268;2023-08-21T00:44:53;20.50;99.90
6788;DHT22;3431;47.966;10.268;2023-08-21T00:45:14;20.60;99.90
6788;DHT22;3431;47.966;10.268;2023-08-21T00:45:37;20.60;99.90
6788;DHT22;3431;47.966;10.268;2023-08-21T00:46:04;20.60;99.90
6788;DHT22;3431;47.966;10.268;2023-08-21T00:46:25;20.60;99.90
6788;DHT22;3431;47.966;10.268;2023-08-21T00:46:47;20.60;99.90
6788;DHT22;3431;47.966;10.268;2023-08-21T00:47:10;20.60;99.90
6788;DHT22;3431;47.966;10.268;2023-08-21T00:47:32;20.60;99.90
6788;DHT22;3431;47.966;10.268;2023-08-21T00:47:55;20.60;99.90
6788;DHT22;3431;47.966;10.268;2023-08-21T00:48:17;20.60;99.90
6788;DHT22;3431;47.966;10.268;2023-08-21T00:48:39;20.60;99.90
6788;DHT22;3431;47.966;10.268;2023-08-21T00:49:01;20.60;99.90
6788;DHT22;3431;47.966;10.268;2023-08-21T00:49:24;20.60;99.90
6788;DHT22;3431;47.966;10.268;2023-08-21T00:49:46;20.60;99.90
6788;DHT22;3431;47.966;10.268;2023-08-21T00:50:09;20.60;99.90
6788;DHT22;3431;47.966;10.268;2023-08-21T00:50:32;20.60;99.90
6788;DHT22;3431;47.966;10.268;2023-08-21T00:50:54;20.60;99.90
6788;DHT22;3431;47.966;10.268;2023-08-21T00:51:17;20.60;99.90
6788;DHT22;3431;47.966;10.268;2023-08-21T00:51:39;20.60;99.90
6788;DHT22;3431;47.966;10.268;2023-08-21T00:52:01;20.50;99.90
6788;DHT22;3431;47.966;10.268;2023-08-21T00:52:23;20.50;99.90
6788;DHT22;3431;47.966;10.268;2023-08-21T00:52:45;20.50;99.90
6788;DHT22;3431;47.966;10.268;2023-08-21T00:53:08;20.50;99.90
6788;DHT22;3431;47.966;10.268;2023-08-21T00:53:30;20.50;99.90
6788;DHT22;3431;47.966;10.268;2023-08-21T00:53:52;20.50;99.90
6788;DHT22;3431;47.966;10.268;2023-08-21T00:54:14;20.50;99.90
6788;DHT22;3431;47.966;10.268;2023-08-21T00:54:36;20.50;99.90
6788;DHT22;3431;47.966;10.268;2023-08-21T00:54:58;20.50;99.90
6788;DHT22;3431;47.966;10.268;2023-08-21T00:55:21;20.50;99.90
6788;DHT22;3431;47.966;10.268;2023-08-21T00:55:42;20.50;99.90
6788;DHT22;3431;47.966;10.268;2023-08-21T00:56:04;20.50;99.90
6788;DHT22;3431;47.966;10.268;2023-08-21T00:56:28;20.50;99.90
6788;DHT22;3431;47.966;10.268;2023-08-21T00:56:49;20.50;99.90
6788;DHT22;3431;47.966;10.268;2023-08-21T00:57:14;20.50;99.90
6788;DHT22;3431;47.966;10.268;2023-08-21T00:57:37;20.50;99.90
6788;DHT22;3431;47.966;10.268;2023-08-21T00:57:59;20.50;99.90
6788;DHT22;3431;47.966;10.268;2023-08-21T00:58:21;20.40;99.90
6788;DHT22;3431;47.966;10.268;2023-08-21T00:58:43;20.40;99.90
6788;DHT22;3431;47.966;10.268;2023-08-21T00:59:06;20.40;99.90
6788;DHT22;3431;47.966;10.268;2023-08-21T00:59:28;20.40;99.90
6788;DHT22;3431;47.966;10.268;2023-08-21T00:59:50;20.40;99.90
6788;DHT22;3431;47.966;10.268;2023-08-21T01:00:13;20.40;99.90
6788;DHT22;3431;47.966;10.268;2023-08-21T01:00:35;20.40;99.90
6788;DHT22;3431;47.966;10.268;2023-08-21T01:00:57;20.40;99.90
6788;DHT22;3431;47.966;10.268;2023-08-21T01:01:21;20.40;99.90
6788;DHT22;3431;47.966;10.268;2023-08-21T01:01:45;20.40;99.90
6788;DHT22;3431;47.966;10.268;2023-08-21T01:02:07;20.40;99.90
6788;DHT22;3431;47.966;10.268;2023-08-21T01:02:28;20.40;99.90
6788;DHT22;3431;47.966;10.268;2023-08-21T01:02:51;20.40;99.90
6788;DHT22;3431;47.966;10.268;2023-08-21T01:03:12;20.40;99.90
6788;DHT22;3431;47.966;10.268;2023-08-21T01:03:34;20.40;99.90
6788;DHT22;3431;47.966;10.268;2023-08-21T01:03:55;20.30;99.90
6788;DHT22;3431;47.966;10.268;2023-08-21T01:04:17;20.30;99.90
6788;DHT22;3431;47.966;10.268;2023-08-21T01:04:40;20.30;99.90
6788;DHT22;3431;47.966;10.268;2023-08-21T01:05:02;20.30;99.90
6788;DHT22;3431;47.966;10.268;2023-08-21T01:05:25;20.30;99.90
6788;DHT22;3431;47.966;10.268;2023-08-21T01:05:47;20.30;99.90
6788;DHT22;3431;47.966;10.268;2023-08-21T01:06:08;20.30;99.90
6788;DHT22;3431;47.966;10.268;2023-08-21T01:06:30;20.40;99.90
6788;DHT22;3431;47.966;10.268;2023-08-21T01:06:53;20.30;99.90
6788;DHT22;3431;47.966;10.268;2023-08-21T01:07:14;20.40;99.90
6788;DHT22;3431;47.966;10.268;2023-08-21T01:07:41;20.30;99.90
6788;DHT22;3431;47.966;10.268;2023-08-21T01:08:06;20.40;99.90
6788;DHT22;3431;47.966;10.268;2023-08-21T01:08:38;20.30;99.90
6788;DHT22;3431;47.966;10.268;2023-08-21T01:09:08;20.30;99.90
6788;DHT22;3431;47.966;10.268;2023-08-21T01:09:35;20.30;99.90
6788;DHT22;3431;47.966;10.268;2023-08-21T01:10:03;20.30;99.90
6788;DHT22;3431;47.966;10.268;2023-08-21T01:10:39;20.30;99.90
6788;DHT22;3431;47.966;10.268;2023-08-21T01:11:09;20.30;99.90
6788;DHT22;3431;47.966;10.268;2023-08-21T01:11:41;20.30;99.90
6788;DHT22;3431;47.966;10.268;2023-08-21T01:12:12;20.30;99.90
6788;DHT22;3431;47.966;10.268;2023-08-21T01:12:40;20.30;99.90
6788;DHT22;3431;47.966;10.268;2023-08-21T01:13:09;20.30;99.90
6788;DHT22;3431;47.966;10.268;2023-08-21T01:13:40;20.30;99.90
6788;DHT22;3431;47.966;10.268;2023-08-21T01:14:12;20.30;99.90
6788;DHT22;3431;47.966;10.268;2023-08-21T01:14:43;20.30;99.90
6788;DHT22;3431;47.966;10.268;2023-08-21T01:15:09;20.30;99.90
6788;DHT22;3431;47.966;10.268;2023-08-21T01:15:31;20.30;99.90
6788;DHT22;3431;47.966;10.268;2023-08-21T01:15:56;20.20;99.90
6788;DHT22;3431;47.966;10.268;2023-08-21T01:16:20;20.20;99.90
6788;DHT22;3431;47.966;10.268;2023-08-21T01:16:44;20.20;99.90
6788;DHT22;3431;47.966;10.268;2023-08-21T01:17:08;20.20;99.90
6788;DHT22;3431;47.966;10.268;2023-08-21T01:17:33;20.20;99.90
6788;DHT22;3431;47.966;10.268;2023-08-21T01:17:56;20.20;99.90
6788;DHT22;3431;47.966;10.268;2023-08-21T01:18:19;20.20;99.90
6788;DHT22;3431;47.966;10.268;2023-08-21T01:18:42;20.20;99.90
6788;DHT22;3431;47.966;10.268;2023-08-21T01:19:09;20.20;99.90
6788;DHT22;3431;47.966;10.268;2023-08-21T01:19:37;20.20;99.90
6788;DHT22;3431;47.966;10.268;2023-08-21T01:20:00;20.20;99.90
6788;DHT22;3431;47.966;10.268;2023-08-21T01:20:23;20.20;99.90
6788;DHT22;3431;47.966;10.268;2023-08-21T01:20:45;20.20;99.90
6788;DHT22;3431;47.966;10.268;2023-08-21T01:21:08;20.20;99.90
6788;DHT22;3431;47.966;10.268;2023-08-21T01:21:31;20.20;99.90
6788;DHT22;3431;47.966;10.268;2023-08-21T01:21:53;20.20;99.90
6788;DHT22;3431;47.966;10.268;2023-08-21T01:22:14;20.20;99.90
6788;DHT22;3431;47.966;10.268;2023-08-21T01:22:37;20.20;99.90
6788;DHT22;3431;47.966;10.268;2023-08-21T01:23:03;20.20;99.90
6788;DHT22;3431;47.966;10.268;2023-08-21T01:23:30;20.20;99.90
6788;DHT22;3431;47.966;10.268;2023-08-21T01:23:51;20.20;99.90
6788;DHT22;3431;47.966;10.268;2023-08-21T01:24:14;20.20;99.90
6788;DHT22;3431;47.966;10.268;2023-08-21T01:24:36;20.20;99.90
6788;DHT22;3431;47.966;10.268;2023-08-21T01:24:58;20.20;99.90
6788;DHT22;3431;47.966;10.268;2023-08-21T01:25:20;20.20;99.90
6788;DHT22;3431;47.966;10.268;2023-08-21T01:25:41;20.20;99.90
6788;DHT22;3431;47.966;10.268;2023-08-21T01:26:05;20.20;99.90
6788;DHT22;3431;47.966;10.268;2023-08-21T01:26:26;20.20;99.90
6788;DHT22;3431;47.966;10.268;2023-08-21T01:26:48;20.20;99.90
6788;DHT22;3431;47.966;10.268;2023-08-21T01:27:11;20.20;99.90
6788;DHT22;3431;47.966;10.268;2023-08-21T01:27:34;20.20;99.90
6788;DHT22;3431;47.966;10.268;2023-08-21T01:27:56;20.20;99.90
6788;DHT22;3431;47.966;10.268;2023-08-21T01:28:18;20.20;99.90
6788;DHT22;3431;47.966;10.268;2023-08-21T01:28:40;20.20;99.90
6788;DHT22;3431;47.966;10.268;2023-08-21T01:29:02;20.20;99.90
6788;DHT22;3431;47.966;10.268;2023-08-21T01:29:25;20.20;99.90
6788;DHT22;3431;47.966;10.268;2023-08-21T01:29:47;20.20;99.90
6788;DHT22;3431;47.966;10.268;2023-08-21T01:30:09;20.20;99.90
6788;DHT22;3431;47.966;10.268;2023-08-21T01:30:32;20.20;99.90
6788;DHT22;3431;47.966;10.268;2023-08-21T01:31:11;20.20;99.90
6788;DHT22;3431;47.966;10.268;2023-08-21T01:31:35;20.20;99.90
6788;DHT22;3431;47.966;10.268;2023-08-21T01:32:06;20.20;99.90
6788;DHT22;3431;47.966;10.268;2023-08-21T01:32:35;20.20;99.90
6788;DHT22;3431;47.966;10.268;2023-08-21T01:33:05;20.20;99.90
6788;DHT22;3431;47.966;10.268;2023-08-21T01:33:34;20.20;99.90
6788;DHT22;3431;47.966;10.268;2023-08-21T01:34:00;20.20;99.90
6788;DHT22;3431;47.966;10.268;2023-08-21T01:34:23;20.40;99.90
6788;DHT22;3431;47.966;10.268;2023-08-21T01:34:46;20.10;99.90
6788;DHT22;3431;47.966;10.268;2023-08-21T01:35:11;20.10;99.90
6788;DHT22;3431;47.966;10.268;2023-08-21T01:35:34;20.10;99.90
6788;DHT22;3431;47.966;10.268;2023-08-21T01:35:57;20.10;99.90
6788;DHT22;3431;47.966;10.268;2023-08-21T01:36:20;20.10;99.90
6788;DHT22;3431;47.966;10.268;2023-08-21T01:36:42;20.10;99.90
6788;DHT22;3431;47.966;10.268;2023-08-21T01:37:06;20.10;99.90
6788;DHT22;3431;47.966;10.268;2023-08-21T01:37:28;20.10;99.90
6788;DHT22;3431;47.966;10.268;2023-08-21T01:37:50;20.10;99.90
6788;DHT22;3431;47.966;10.268;2023-08-21T01:38:12;20.10;99.90
6788;DHT22;3431;47.966;10.268;2023-08-21T01:38:37;20.10;99.90
6788;DHT22;3431;47.966;10.268;2023-08-21T01:39:00;20.10;99.90
6788;DHT22;3431;47.966;10.268;2023-08-21T01:39:22;20.10;99.90
6788;DHT22;3431;47.966;10.268;2023-08-21T01:39:44;20.10;99.90
6788;DHT22;3431;47.966;10.268;2023-08-21T01:40:06;20.10;99.90
6788;DHT22;3431;47.966;10.268;2023-08-21T01:40:29;20.10;99.90
6788;DHT22;3431;47.966;10.268;2023-08-21T01:40:54;20.10;99.90
6788;DHT22;3431;47.966;10.268;2023-08-21T01:41:16;20.10;99.90
6788;DHT22;3431;47.966;10.268;2023-08-21T01:41:37;20.10;99.90
6788;DHT22;3431;47.966;10.268;2023-08-21T01:41:59;20.00;99.90
6788;DHT22;3431;47.966;10.268;2023-08-21T01:42:21;20.10;99.90
6788;DHT22;3431;47.966;10.268;2023-08-21T01:42:43;20.10;99.90
6788;DHT22;3431;47.966;10.268;2023-08-21T01:43:04;20.00;99.90
6788;DHT22;3431;47.966;10.268;2023-08-21T01:43:26;20.00;99.90
6788;DHT22;3431;47.966;10.268;2023-08-21T01:43:48;20.00;99.90
6788;DHT22;3431;47.966;10.268;2023-08-21T01:44:11;20.00;99.90
6788;DHT22;3431;47.966;10.268;2023-08-21T01:44:33;20.00;99.90
6788;DHT22;3431;47.966;10.268;2023-08-21T01:44:55;20.00;99.90
6788;DHT22;3431;47.966;10.268;2023-08-21T01:45:16;20.00;99.90
6788;DHT22;3431;47.966;10.268;2023-08-21T01:45:38;20.00;99.90
6788;DHT22;3431;47.966;10.268;2023-08-21T01:46:01;20.00;99.90
6788;DHT22;3431;47.966;10.268;2023-08-21T01:46:22;20.00;99.90
6788;DHT22;3431;47.966;10.268;2023-08-21T01:46:44;20.00;99.90
6788;DHT22;3431;47.966;10.268;2023-08-21T01:47:06;20.00;99.90
6788;DHT22;3431;47.966;10.268;2023-08-21T01:47:28;20.00;99.90
6788;DHT22;3431;47.966;10.268;2023-08-21T01:47:49;20.00;99.90
6788;DHT22;3431;47.966;10.268;2023-08-21T01:48:12;20.00;99.90
6788;DHT22;3431;47.966;10.268;2023-08-21T01:48:33;20.00;99.90
6788;DHT22;3431;47.966;10.268;2023-08-21T01:48:55;20.00;99.90
6788;DHT22;3431;47.966;10.268;2023-08-21T01:49:16;20.00;99.90
6788;DHT22;3431;47.966;10.268;2023-08-21T01:49:41;19.90;99.90
6788;DHT22;3431;47.966;10.268;2023-08-21T01:50:02;19.90;99.90
6788;DHT22;3431;47.966;10.268;2023-08-21T01:50:25;19.90;99.90
6788;DHT22;3431;47.966;10.268;2023-08-21T01:50:47;20.00;99.90
6788;DHT22;3431;47.966;10.268;2023-08-21T01:51:08;19.90;99.90
6788;DHT22;3431;47.966;10.268;2023-08-21T01:51:30;19.90;99.90
6788;DHT22;3431;47.966;10.268;2023-08-21T01:51:52;19.90;99.90
6788;DHT22;3431;47.966;10.268;2023-08-21T01:52:14;19.90;99.90
6788;DHT22;3431;47.966;10.268;2023-08-21T01:52:35;19.90;99.90
6788;DHT22;3431;47.966;10.268;2023-08-21T01:52:57;19.90;99.90
6788;DHT22;3431;47.966;10.268;2023-08-21T01:53:18;19.90;99.90
6788;DHT22;3431;47.966;10.268;2023-08-21T01:53:42;19.90;99.90
6788;DHT22;3431;47.966;10.268;2023-08-21T01:54:04;19.90;99.90
6788;DHT22;3431;47.966;10.268;2023-08-21T01:54:25;19.90;99.90
6788;DHT22;3431;47.966;10.268;2023-08-21T01:54:49;19.90;99.90
6788;DHT22;3431;47.966;10.268;2023-08-21T01:55:13;19.90;99.90
6788;DHT22;3431;47.966;10.268;2023-08-21T01:55:35;19.90;99.90
6788;DHT22;3431;47.966;10.268;2023-08-21T01:55:57;19.90;99.90
6788;DHT22;3431;47.966;10.268;2023-08-21T01:56:19;19.90;99.90
6788;DHT22;3431;47.966;10.268;2023-08-21T01:56:40;19.90;99.90
6788;DHT22;3431;47.966;10.268;2023-08-21T01:57:02;19.90;99.90
6788;DHT22;3431;47.966;10.268;2023-08-21T01:57:25;19.90;99.90
6788;DHT22;3431;47.966;10.268;2023-08-21T01:57:46;19.80;99.90
6788;DHT22;3431;47.966;10.268;2023-08-21T01:58:08;19.90;99.90
6788;DHT22;3431;47.966;10.268;2023-08-21T01:58:29;19.80;99.90
6788;DHT22;3431;47.966;10.268;2023-08-21T01:58:51;19.80;99.90
6788;DHT22;3431;47.966;10.268;2023-08-21T01:59:16;19.80;99.90
6788;DHT22;3431;47.966;10.268;2023-08-21T01:59:38;19.80;99.90
6788;DHT22;3431;47.966;10.268;2023-08-21T01:59:59;19.80;99.90
6788;DHT22;3431;47.966;10.268;2023-08-21T02:00:21;19.80;99.90
6788;DHT22;3431;47.966;10.268;2023-08-21T02:00:45;19.80;99.90
6788;DHT22;3431;47.966;10.268;2023-08-21T02:01:07;19.80;99.90
6788;DHT22;3431;47.966;10.268;2023-08-21T02:01:29;19.80;99.90
6788;DHT22;3431;47.966;10.268;2023-08-21T02:01:51;19.80;99.90
6788;DHT22;3431;47.966;10.268;2023-08-21T02:02:13;19.80;99.90
6788;DHT22;3431;47.966;10.268;2023-08-21T02:02:34;19.80;99.90
6788;DHT22;3431;47.966;10.268;2023-08-21T02:02:56;19.80;99.90
6788;DHT22;3431;47.966;10.268;2023-08-21T02:03:17;19.80;99.90
6788;DHT22;3431;47.966;10.268;2023-08-21T02:03:40;19.80;99.90
6788;DHT22;3431;47.966;10.268;2023-08-21T02:04:03;19.80;99.90
6788;DHT22;3431;47.966;10.268;2023-08-21T02:04:24;19.80;99.90
6788;DHT22;3431;47.966;10.268;2023-08-21T02:04:46;19.80;99.90
6788;DHT22;3431;47.966;10.268;2023-08-21T02:05:08;19.80;99.90
6788;DHT22;3431;47.966;10.268;2023-08-21T02:05:29;19.80;99.90
6788;DHT22;3431;47.966;10.268;2023-08-21T02:05:55;19.80;99.90
6788;DHT22;3431;47.966;10.268;2023-08-21T02:06:18;19.80;99.90
6788;DHT22;3431;47.966;10.268;2023-08-21T02:06:40;19.80;99.90
6788;DHT22;3431;47.966;10.268;2023-08-21T02:07:02;19.70;99.90
6788;DHT22;3431;47.966;10.268;2023-08-21T02:07:23;19.70;99.90
6788;DHT22;3431;47.966;10.268;2023-08-21T02:07:45;19.80;99.90
6788;DHT22;3431;47.966;10.268;2023-08-21T02:08:11;19.70;99.90
6788;DHT22;3431;47.966;10.268;2023-08-21T02:08:33;19.70;99.90
6788;DHT22;3431;47.966;10.268;2023-08-21T02:08:56;19.70;99.90
6788;DHT22;3431;47.966;10.268;2023-08-21T02:09:18;19.70;99.90
6788;DHT22;3431;47.966;10.268;2023-08-21T02:09:40;19.70;99.90
6788;DHT22;3431;47.966;10.268;2023-08-21T02:10:02;19.70;99.90
6788;DHT22;3431;47.966;10.268;2023-08-21T02:10:24;19.70;99.90
6788;DHT22;3431;47.966;10.268;2023-08-21T02:10:49;19.70;99.90
6788;DHT22;3431;47.966;10.268;2023-08-21T02:11:11;19.70;99.90
6788;DHT22;3431;47.966;10.268;2023-08-21T02:11:33;19.70;99.90
6788;DHT22;3431;47.966;10.268;2023-08-21T02:11:55;19.70;99.90
6788;DHT22;3431;47.966;10.268;2023-08-21T02:12:17;19.70;99.90
6788;DHT22;3431;47.966;10.268;2023-08-21T02:12:38;19.70;99.90
6788;DHT22;3431;47.966;10.268;2023-08-21T02:13:00;19.60;99.90
6788;DHT22;3431;47.966;10.268;2023-08-21T02:13:21;19.60;99.90
6788;DHT22;3431;47.966;10.268;2023-08-21T02:13:43;19.60;99.90
6788;DHT22;3431;47.966;10.268;2023-08-21T02:14:05;19.60;99.90
6788;DHT22;3431;47.966;10.268;2023-08-21T02:14:27;19.60;99.90
6788;DHT22;3431;47.966;10.268;2023-08-21T02:14:50;19.60;99.90
6788;DHT22;3431;47.966;10.268;2023-08-21T02:15:11;19.60;99.90
6788;DHT22;3431;47.966;10.268;2023-08-21T02:15:33;19.60;99.90
6788;DHT22;3431;47.966;10.268;2023-08-21T02:15:55;19.60;99.90
6788;DHT22;3431;47.966;10.268;2023-08-21T02:16:17;19.60;99.90
6788;DHT22;3431;47.966;10.268;2023-08-21T02:16:38;19.60;99.90
6788;DHT22;3431;47.966;10.268;2023-08-21T02:17:01;19.60;99.90
6788;DHT22;3431;47.966;10.268;2023-08-21T02:17:26;19.60;99.90
6788;DHT22;3431;47.966;10.268;2023-08-21T02:17:48;19.60;99.90
6788;DHT22;3431;47.966;10.268;2023-08-21T02:18:10;19.60;99.90
6788;DHT22;3431;47.966;10.268;2023-08-21T02:18:33;19.60;99.90
6788;DHT22;3431;47.966;10.268;2023-08-21T02:18:55;19.60;99.90
6788;DHT22;3431;47.966;10.268;2023-08-21T02:19:16;19.60;99.90
6788;DHT22;3431;47.966;10.268;2023-08-21T02:19:39;19.60;99.90
6788;DHT22;3431;47.966;10.268;2023-08-21T02:20:01;19.60;99.90
6788;DHT22;3431;47.966;10.268;2023-08-21T02:20:23;19.50;99.90
6788;DHT22;3431;47.966;10.268;2023-08-21T02:20:44;19.50;99.90
6788;DHT22;3431;47.966;10.268;2023-08-21T02:21:06;19.60;99.90
6788;DHT22;3431;47.966;10.268;2023-08-21T02:21:27;19.50;99.90
6788;DHT22;3431;47.966;10.268;2023-08-21T02:21:50;19.60;99.90
6788;DHT22;3431;47.966;10.268;2023-08-21T02:22:11;19.60;99.90
6788;DHT22;3431;47.966;10.268;2023-08-21T02:22:33;19.60;99.90
6788;DHT22;3431;47.966;10.268;2023-08-21T02:22:54;19.50;99.90
6788;DHT22;3431;47.966;10.268;2023-08-21T02:23:16;19.50;99.90
6788;DHT22;3431;47.966;10.268;2023-08-21T02:23:38;19.50;99.90
6788;DHT22;3431;47.966;10.268;2023-08-21T02:24:02;19.60;99.90
6788;DHT22;3431;47.966;10.268;2023-08-21T02:24:23;19.50;99.90
6788;DHT22;3431;47.966;10.268;2023-08-21T02:24:45;19.50;99.90
6788;DHT22;3431;47.966;10.268;2023-08-21T02:25:07;19.50;99.90
6788;DHT22;3431;47.966;10.268;2023-08-21T02:25:29;19.50;99.90